createdAt,value
2023-02-09T00:00:14.065Z,-7.71
2023-02-09T00:02:44.515Z,-7.54
2023-02-09T00:05:13.825Z,-7.66
2023-02-09T00:07:42.862Z,-7.64
2023-02-09T00:10:12.182Z,-7.67
2023-02-09T00:13:00.334Z,-7.59
2023-02-09T00:15:29.369Z,-7.58
2023-02-09T00:17:58.650Z,-7.74
2023-02-09T00:20:27.687Z,-7.87
2023-02-09T00:22:56.750Z,-8.07
2023-02-09T00:25:25.809Z,-8.03
2023-02-09T00:27:56.252Z,-8.15
2023-02-09T00:30:26.131Z,-8.15
2023-02-09T00:32:55.212Z,-8.18
2023-02-09T00:35:24.260Z,-8.28
2023-02-09T00:37:53.320Z,-8.23
2023-02-09T00:40:22.708Z,-8.27
2023-02-09T00:42:51.935Z,-8.23
2023-02-09T00:45:22.352Z,-8.31
2023-02-09T00:47:51.426Z,-8.28
2023-02-09T00:50:20.699Z,-8.24
2023-02-09T00:52:50.470Z,-8.04
2023-02-09T00:55:20.172Z,-8.08
2023-02-09T00:57:49.211Z,-7.95
2023-02-09T01:00:19.715Z,-8.01
2023-02-09T01:02:50.142Z,-8.13
2023-02-09T01:05:19.906Z,-8.19
2023-02-09T01:07:48.991Z,-8.23
2023-02-09T01:10:18.056Z,-8.29
2023-02-09T01:12:47.199Z,-8.32
2023-02-09T01:15:16.401Z,-8.22
2023-02-09T01:17:46.383Z,-8.39
2023-02-09T01:20:17.714Z,-8.51
2023-02-09T01:22:46.832Z,-8.68
2023-02-09T01:25:15.944Z,-8.35
2023-02-09T01:27:44.991Z,-8.27
2023-02-09T01:30:15.210Z,-8.34
2023-02-09T01:32:44.387Z,-8.37
2023-02-09T01:35:13.676Z,-8.37
2023-02-09T01:37:44.116Z,-8.58
2023-02-09T01:40:13.924Z,-8.44
2023-02-09T01:42:43.987Z,-8.53
2023-02-09T01:45:29.682Z,-8.55
2023-02-09T01:48:03.496Z,-8.31
2023-02-09T01:50:37.397Z,-8.53
2023-02-09T01:53:09.340Z,-8.52
2023-02-09T01:55:45.504Z,-8.66
2023-02-09T01:58:18.582Z,-8.70
2023-02-09T02:00:48.729Z,-8.74
2023-02-09T02:03:22.690Z,-8.56
2023-02-09T02:05:56.684Z,-8.53
2023-02-09T02:08:32.575Z,-8.55
2023-02-09T02:11:01.962Z,-8.58
2023-02-09T02:13:31.006Z,-8.53
2023-02-09T02:16:08.019Z,-8.36
2023-02-09T02:18:58.755Z,-8.24
2023-02-09T02:22:18.031Z,-8.37
2023-02-09T02:25:23.489Z,-8.35
2023-02-09T02:28:11.267Z,-8.26
2023-02-09T02:30:59.635Z,-8.36
2023-02-09T02:33:42.723Z,-8.40
2023-02-09T02:36:19.412Z,-8.48
2023-02-09T02:38:55.226Z,-8.59
2023-02-09T02:41:53.789Z,-8.64
2023-02-09T02:44:24.637Z,-8.72
2023-02-09T02:46:58.954Z,-8.65
2023-02-09T02:49:40.210Z,-8.64
2023-02-09T02:52:12.263Z,-8.58
2023-02-09T02:54:46.588Z,-8.69
2023-02-09T02:57:22.492Z,-8.91
2023-02-09T02:59:56.756Z,-8.99
2023-02-09T03:02:33.632Z,-8.98
2023-02-09T03:05:06.782Z,-9.05
2023-02-09T03:07:35.943Z,-8.90
2023-02-09T03:10:27.835Z,-8.95
2023-02-09T03:13:13.137Z,-8.89
2023-02-09T03:15:55.461Z,-9.01
2023-02-09T03:18:31.958Z,-9.15
2023-02-09T03:21:12.476Z,-9.06
2023-02-09T03:23:48.470Z,-9.13
2023-02-09T03:26:23.739Z,-9.10
2023-02-09T03:28:57.256Z,-9.14
2023-02-09T03:31:28.201Z,-9.07
2023-02-09T03:33:58.441Z,-9.07
2023-02-09T03:36:34.311Z,-9.20
2023-02-09T03:39:03.373Z,-9.23
2023-02-09T03:41:32.574Z,-9.17
2023-02-09T03:44:19.320Z,-9.10
2023-02-09T03:46:48.432Z,-9.20
2023-02-09T03:49:17.484Z,-9.24
2023-02-09T03:51:48.226Z,-9.30
2023-02-09T03:54:17.274Z,-9.35
2023-02-09T03:56:46.562Z,-9.35
2023-02-09T03:59:15.675Z,-9.14
2023-02-09T04:01:44.851Z,-9.32
2023-02-09T04:04:14.056Z,-9.30
2023-02-09T04:06:43.092Z,-9.42
2023-02-09T04:09:14.061Z,-9.51
2023-02-09T04:11:43.443Z,-9.45
2023-02-09T04:14:12.641Z,-9.54
2023-02-09T04:16:41.812Z,-9.56
2023-02-09T04:19:12.404Z,-9.54
2023-02-09T04:21:41.497Z,-9.53
2023-02-09T04:24:10.996Z,-9.59
2023-02-09T04:26:41.429Z,-9.30
2023-02-09T04:29:10.529Z,-9.15
2023-02-09T04:31:39.698Z,-9.15
2023-02-09T04:34:08.885Z,-9.23
2023-02-09T04:36:37.961Z,-9.31
2023-02-09T04:39:07.059Z,-9.36
2023-02-09T04:41:36.235Z,-9.36
2023-02-09T04:44:06.910Z,-9.39
2023-02-09T04:46:36.116Z,-9.29
2023-02-09T04:49:05.277Z,-9.31
2023-02-09T04:51:34.476Z,-9.25
2023-02-09T04:54:03.589Z,-9.32
2023-02-09T04:56:32.719Z,-9.34
2023-02-09T04:59:19.302Z,-9.38
2023-02-09T05:01:49.783Z,-9.27
2023-02-09T05:04:18.806Z,-9.29
2023-02-09T05:06:47.869Z,-9.07
2023-02-09T05:09:16.955Z,-9.04
2023-02-09T05:11:46.030Z,-9.17
2023-02-09T05:14:15.380Z,-9.33
2023-02-09T05:16:44.490Z,-9.44
2023-02-09T05:19:16.152Z,-9.47
2023-02-09T05:21:45.207Z,-9.43
2023-02-09T05:24:14.423Z,-9.54
2023-02-09T05:26:43.497Z,-9.56
2023-02-09T05:29:12.570Z,-9.66
2023-02-09T05:31:42.803Z,-9.73
2023-02-09T05:34:12.026Z,-9.88
2023-02-09T05:36:42.482Z,-9.94
2023-02-09T05:39:11.507Z,-9.99
2023-02-09T05:41:58.207Z,-10.06
2023-02-09T05:44:27.266Z,-10.06
2023-02-09T05:46:56.327Z,-10.04
2023-02-09T05:49:25.472Z,-10.03
2023-02-09T05:51:55.886Z,-9.94
2023-02-09T05:54:25.176Z,-9.87
2023-02-09T05:56:54.270Z,-9.88
2023-02-09T05:59:23.362Z,-9.92
2023-02-09T06:01:52.744Z,-9.89
2023-02-09T06:04:22.232Z,-9.77
2023-02-09T06:06:51.294Z,-9.79
2023-02-09T06:09:22.211Z,-9.77
2023-02-09T06:11:51.544Z,-9.63
2023-02-09T06:14:20.953Z,-9.66
2023-02-09T06:16:50.019Z,-9.46
2023-02-09T06:19:22.518Z,-9.59
2023-02-09T06:21:51.620Z,-9.56
2023-02-09T06:24:22.072Z,-9.41
2023-02-09T06:26:51.103Z,-9.30
2023-02-09T06:29:20.252Z,-9.11
2023-02-09T06:31:49.432Z,-9.01
2023-02-09T06:34:18.629Z,-9.22
2023-02-09T06:36:47.752Z,-9.18
2023-02-09T06:39:16.854Z,-9.10
2023-02-09T06:41:47.279Z,-8.99
2023-02-09T06:44:16.403Z,-8.88
2023-02-09T06:46:45.388Z,-8.86
2023-02-09T06:49:14.733Z,-8.77
2023-02-09T06:51:43.920Z,-8.65
2023-02-09T06:54:13.032Z,-8.55
2023-02-09T06:56:42.083Z,-8.61
2023-02-09T06:59:12.630Z,-8.48
2023-02-09T07:01:41.883Z,-8.36
2023-02-09T07:04:10.946Z,-8.09
2023-02-09T07:06:39.961Z,-8.04
2023-02-09T07:09:09.192Z,-7.94
2023-02-09T07:11:38.329Z,-7.97
2023-02-09T07:14:07.402Z,-7.91
2023-02-09T07:16:37.881Z,-7.73
2023-02-09T07:19:06.953Z,-7.58
2023-02-09T07:21:35.998Z,-7.63
2023-02-09T07:24:05.731Z,-7.50
2023-02-09T07:26:34.857Z,-7.32
2023-02-09T07:29:03.917Z,-7.21
2023-02-09T07:31:33.138Z,-7.11
2023-02-09T07:34:03.618Z,-7.05
2023-02-09T07:36:32.733Z,-6.94
2023-02-09T07:39:02.337Z,-6.77
2023-02-09T07:41:31.456Z,-6.65
2023-02-09T07:44:00.508Z,-6.60
2023-02-09T07:46:29.641Z,-6.43
2023-02-09T07:49:01.232Z,-6.36
2023-02-09T07:51:34.075Z,-6.27
2023-02-09T07:54:04.634Z,-6.01
2023-02-09T07:56:39.403Z,-5.93
2023-02-09T07:59:09.314Z,-5.96
2023-02-09T08:01:38.473Z,-5.72
2023-02-09T08:04:07.619Z,-5.71
2023-02-09T08:06:43.189Z,-5.46
2023-02-09T08:09:14.924Z,-5.37
2023-02-09T08:11:49.907Z,-5.06
2023-02-09T08:14:25.091Z,-4.83
2023-02-09T08:17:18.967Z,-4.72
2023-02-09T08:19:51.372Z,-4.42
2023-02-09T08:22:23.534Z,-4.39
2023-02-09T08:24:53.147Z,-4.20
2023-02-09T08:27:23.331Z,-4.15
2023-02-09T08:29:52.677Z,-3.80
2023-02-09T08:32:21.806Z,-3.85
2023-02-09T08:34:50.923Z,-3.72
2023-02-09T08:37:21.389Z,-3.63
2023-02-09T08:39:50.513Z,-3.43
2023-02-09T08:42:19.725Z,-3.27
2023-02-09T08:44:48.803Z,-3.05
2023-02-09T08:47:17.982Z,-2.92
2023-02-09T08:49:47.041Z,-2.75
2023-02-09T08:52:16.653Z,-2.60
2023-02-09T08:54:47.123Z,-2.53
2023-02-09T08:57:16.225Z,-2.29
2023-02-09T08:59:45.282Z,-2.04
2023-02-09T09:02:14.375Z,-1.99
2023-02-09T09:04:43.465Z,-1.95
2023-02-09T09:07:12.524Z,-1.78
2023-02-09T09:09:41.675Z,-1.53
2023-02-09T09:12:12.196Z,-1.36
2023-02-09T09:14:41.774Z,-1.28
2023-02-09T09:17:10.895Z,-1.29
2023-02-09T09:19:40.175Z,-0.99
2023-02-09T09:22:09.276Z,-0.97
2023-02-09T09:24:40.791Z,-0.75
2023-02-09T09:27:11.820Z,-0.66
2023-02-09T09:29:40.968Z,-0.49
2023-02-09T09:32:13.898Z,-0.25
2023-02-09T09:34:43.514Z,-0.09
2023-02-09T09:37:12.583Z,-0.10
2023-02-09T09:39:41.610Z,0.10
2023-02-09T09:42:25.536Z,0.38
2023-02-09T09:44:55.695Z,0.60
2023-02-09T09:47:35.815Z,0.25
2023-02-09T09:50:07.673Z,0.42
2023-02-09T09:52:41.445Z,0.73
2023-02-09T09:55:19.227Z,0.96
2023-02-09T09:57:50.833Z,1.03
2023-02-09T10:00:24.453Z,0.75
2023-02-09T10:02:53.803Z,1.03
2023-02-09T10:05:26.711Z,1.08
2023-02-09T10:08:02.334Z,1.27
2023-02-09T10:10:44.990Z,1.19
2023-02-09T10:13:24.815Z,0.96
2023-02-09T10:15:55.875Z,1.08
2023-02-09T10:18:26.627Z,1.23
2023-02-09T10:21:02.451Z,1.24
2023-02-09T10:23:41.677Z,1.38
2023-02-09T10:26:24.993Z,1.33
2023-02-09T10:28:58.178Z,1.13
2023-02-09T10:31:33.293Z,1.17
2023-02-09T10:34:11.775Z,1.44
2023-02-09T10:36:49.730Z,1.59
2023-02-09T10:39:22.449Z,1.53
2023-02-09T10:41:54.056Z,1.55
2023-02-09T10:44:28.036Z,1.53
2023-02-09T10:47:12.052Z,1.52
2023-02-09T10:49:41.126Z,1.66
2023-02-09T10:52:19.390Z,1.65
2023-02-09T10:54:52.015Z,1.62
2023-02-09T10:57:25.283Z,1.70
2023-02-09T10:59:59.624Z,1.71
2023-02-09T11:02:38.856Z,1.74
2023-02-09T11:05:29.752Z,1.79
2023-02-09T11:08:07.723Z,1.83
2023-02-09T11:10:42.570Z,1.98
2023-02-09T11:13:25.030Z,2.13
2023-02-09T11:16:44.449Z,2.22
2023-02-09T11:19:31.573Z,2.36
2023-02-09T11:22:12.774Z,2.36
2023-02-09T11:24:54.160Z,2.48
2023-02-09T11:27:42.651Z,2.42
2023-02-09T11:30:38.893Z,2.44
2023-02-09T11:33:17.534Z,2.38
2023-02-09T11:35:59.423Z,2.43
2023-02-09T11:38:40.310Z,2.52
2023-02-09T11:41:34.365Z,2.52
2023-02-09T11:44:07.683Z,2.64
2023-02-09T11:46:38.614Z,2.77
2023-02-09T11:49:19.256Z,2.86
2023-02-09T11:51:50.851Z,3.08
2023-02-09T11:54:24.565Z,3.23
2023-02-09T11:57:02.704Z,3.21
2023-02-09T11:59:39.933Z,3.32
2023-02-09T12:02:23.463Z,3.35
2023-02-09T12:05:00.404Z,3.39
2023-02-09T12:07:37.408Z,3.39
2023-02-09T12:10:20.659Z,3.73
2023-02-09T12:12:55.885Z,3.86
2023-02-09T12:15:29.014Z,3.93
2023-02-09T12:18:05.088Z,4.13
2023-02-09T12:20:53.999Z,3.93
2023-02-09T12:23:31.659Z,4.13
2023-02-09T12:26:01.839Z,4.61
2023-02-09T12:28:44.964Z,4.56
2023-02-09T12:31:25.736Z,4.63
2023-02-09T12:34:24.959Z,4.86
2023-02-09T12:37:30.350Z,4.85
2023-02-09T12:40:24.055Z,4.89
2023-02-09T12:43:29.435Z,5.64
2023-02-09T12:46:16.357Z,5.72
2023-02-09T12:49:10.511Z,6.58
2023-02-09T12:52:09.639Z,7.45
2023-02-09T12:55:01.036Z,7.13
2023-02-09T12:57:54.223Z,6.58
2023-02-09T13:00:56.403Z,6.39
2023-02-09T13:03:27.698Z,6.49
2023-02-09T13:06:03.132Z,6.94
2023-02-09T13:08:39.966Z,7.12
2023-02-09T13:11:26.801Z,7.35
2023-02-09T13:13:59.086Z,8.06
2023-02-09T13:17:11.850Z,6.90
2023-02-09T13:20:06.081Z,6.84
2023-02-09T13:22:51.888Z,5.44
2023-02-09T13:25:32.505Z,5.18
2023-02-09T13:28:15.852Z,5.13
2023-02-09T13:30:45.803Z,5.80
2023-02-09T13:33:33.615Z,6.62
2023-02-09T13:36:24.807Z,7.26
2023-02-09T13:38:54.948Z,7.60
2023-02-09T13:41:33.092Z,7.85
2023-02-09T13:44:04.110Z,7.42
2023-02-09T13:46:35.422Z,8.06
2023-02-09T13:49:13.261Z,9.67
2023-02-09T13:51:42.621Z,8.98
2023-02-09T13:54:20.361Z,9.27
2023-02-09T13:56:49.617Z,9.93
2023-02-09T13:59:20.169Z,11.14
2023-02-09T14:01:50.525Z,10.87
2023-02-09T14:04:25.499Z,11.07
2023-02-09T14:07:03.194Z,11.59
2023-02-09T14:09:43.319Z,12.08
2023-02-09T14:12:18.788Z,12.42
2023-02-09T14:15:15.820Z,11.94
2023-02-09T14:17:53.496Z,12.46
2023-02-09T14:20:25.910Z,13.21
2023-02-09T14:23:00.694Z,13.80
2023-02-09T14:25:31.911Z,13.77
2023-02-09T14:28:01.384Z,12.24
2023-02-09T14:30:36.375Z,12.74
2023-02-09T14:33:06.249Z,14.13
2023-02-09T14:35:40.541Z,15.79
2023-02-09T14:38:38.635Z,16.33
2023-02-09T14:41:30.501Z,17.87
2023-02-09T14:44:02.087Z,14.58
2023-02-09T14:46:49.656Z,12.65
2023-02-09T14:49:19.658Z,14.65
2023-02-09T14:51:51.336Z,15.84
2023-02-09T14:54:26.590Z,16.11
2023-02-09T14:56:58.741Z,16.27
2023-02-09T14:59:28.301Z,17.02
2023-02-09T15:01:59.127Z,17.72
2023-02-09T15:04:33.194Z,18.09
2023-02-09T15:07:05.102Z,17.55
2023-02-09T15:09:38.216Z,16.90
2023-02-09T15:12:08.945Z,16.17
2023-02-09T15:14:44.707Z,14.97
2023-02-09T15:17:19.001Z,12.84
2023-02-09T15:19:49.046Z,10.54
2023-02-09T15:22:19.095Z,8.57
2023-02-09T15:24:52.287Z,7.33
2023-02-09T15:27:30.167Z,6.55
2023-02-09T15:30:02.305Z,5.97
2023-02-09T15:32:34.691Z,5.48
2023-02-09T15:35:05.242Z,5.09
2023-02-09T15:37:38.299Z,4.73
2023-02-09T15:40:43.938Z,4.35
2023-02-09T15:43:34.285Z,3.84
2023-02-09T15:46:21.741Z,3.48
2023-02-09T15:48:52.360Z,3.10
2023-02-09T15:51:22.798Z,2.77
2023-02-09T15:53:54.259Z,2.38
2023-02-09T15:56:23.763Z,1.97
2023-02-09T15:58:53.432Z,1.59
2023-02-09T16:01:22.501Z,1.17
2023-02-09T16:03:55.238Z,0.85
2023-02-09T16:06:26.058Z,0.36
2023-02-09T16:08:57.911Z,0.28
2023-02-09T16:11:33.009Z,0.13
2023-02-09T16:14:02.616Z,-0.10
2023-02-09T16:16:32.217Z,-0.22
2023-02-09T16:19:02.800Z,-0.37
2023-02-09T16:21:36.172Z,-0.59
2023-02-09T16:24:07.576Z,-0.78
2023-02-09T16:26:37.048Z,-0.95
2023-02-09T16:29:12.281Z,-1.19
2023-02-09T16:31:42.344Z,-1.38
2023-02-09T16:34:15.761Z,-1.63
2023-02-09T16:36:46.395Z,-1.60
2023-02-09T16:39:20.634Z,-1.67
2023-02-09T16:41:53.873Z,-1.76
2023-02-09T16:44:26.035Z,-1.84
2023-02-09T16:46:59.791Z,-1.92
2023-02-09T16:49:38.976Z,-2.08
2023-02-09T16:52:16.943Z,-2.26
2023-02-09T16:54:49.302Z,-2.30
2023-02-09T16:57:23.238Z,-2.45
2023-02-09T16:59:53.555Z,-2.60
2023-02-09T17:02:39.858Z,-2.61
2023-02-09T17:05:20.380Z,-2.75
2023-02-09T17:07:55.677Z,-2.75
2023-02-09T17:10:28.956Z,-2.90
2023-02-09T17:12:58.674Z,-2.97
2023-02-09T17:15:31.652Z,-2.97
2023-02-09T17:18:06.600Z,-3.10
2023-02-09T17:20:42.672Z,-3.07
2023-02-09T17:23:17.627Z,-3.21
2023-02-09T17:25:48.157Z,-3.29
2023-02-09T17:28:18.199Z,-3.27
2023-02-09T17:30:49.634Z,-3.28
2023-02-09T17:33:24.759Z,-3.25
2023-02-09T17:36:24.709Z,-3.33
2023-02-09T17:38:48.050Z,-3.61
2023-02-09T17:41:23.162Z,-3.68
2023-02-09T17:43:53.798Z,-3.75
2023-02-09T17:46:23.832Z,-3.92
2023-02-09T17:48:53.255Z,-4.00
2023-02-09T17:51:30.800Z,-3.93
2023-02-09T17:53:59.964Z,-4.09
2023-02-09T17:56:29.101Z,-4.05
2023-02-09T17:59:03.098Z,-3.99
2023-02-09T18:01:33.456Z,-3.98
2023-02-09T18:04:03.573Z,-4.08
2023-02-09T18:06:37.548Z,-4.23
2023-02-09T18:09:09.651Z,-4.39
2023-02-09T18:12:00.044Z,-4.40
2023-02-09T18:14:31.440Z,-4.44
2023-02-09T18:17:00.943Z,-4.38
2023-02-09T18:19:30.140Z,-4.25
2023-02-09T18:22:02.988Z,-3.92
2023-02-09T18:24:36.429Z,-3.80
2023-02-09T18:27:08.132Z,-3.84
2023-02-09T18:29:37.344Z,-3.82
2023-02-09T18:32:07.696Z,-3.86
2023-02-09T18:34:37.402Z,-4.11
2023-02-09T18:37:08.304Z,-4.29
2023-02-09T18:39:40.776Z,-4.40
2023-02-09T18:42:14.704Z,-4.59
2023-02-09T18:44:44.267Z,-4.74
2023-02-09T18:47:14.120Z,-4.66
2023-02-09T18:49:43.331Z,-4.65
2023-02-09T18:52:18.865Z,-4.67
2023-02-09T18:54:48.101Z,-4.75
2023-02-09T18:57:18.354Z,-4.81
2023-02-09T18:59:50.058Z,-4.76
2023-02-09T19:02:19.687Z,-4.84
2023-02-09T19:04:48.984Z,-4.92
2023-02-09T19:07:19.456Z,-5.01
2023-02-09T19:09:48.525Z,-5.08
2023-02-09T19:12:17.602Z,-5.08
2023-02-09T19:14:47.924Z,-5.13
2023-02-09T19:17:20.333Z,-5.18
2023-02-09T19:19:50.232Z,-5.26
2023-02-09T19:22:22.853Z,-5.26
2023-02-09T19:24:56.113Z,-5.30
2023-02-09T19:27:27.589Z,-5.28
2023-02-09T19:29:58.823Z,-5.33
2023-02-09T19:32:28.988Z,-5.42
2023-02-09T19:34:58.486Z,-5.43
2023-02-09T19:37:30.311Z,-5.48
2023-02-09T19:40:07.332Z,-5.44
2023-02-09T19:42:36.976Z,-5.51
2023-02-09T19:45:07.249Z,-5.51
2023-02-09T19:47:38.304Z,-5.38
2023-02-09T19:50:08.025Z,-5.33
2023-02-09T19:52:40.837Z,-5.07
2023-02-09T19:55:12.103Z,-4.87
2023-02-09T19:57:42.530Z,-5.04
2023-02-09T20:00:15.805Z,-5.08
2023-02-09T20:02:44.893Z,-5.11
2023-02-09T20:05:14.183Z,-5.42
2023-02-09T20:07:44.844Z,-5.61
2023-02-09T20:10:14.193Z,-5.76
2023-02-09T20:15:18.805Z,-5.87
2023-02-09T20:20:22.114Z,-5.89
2023-02-09T20:22:52.846Z,-5.92
2023-02-09T20:25:22.152Z,-5.93
2023-02-09T20:27:52.206Z,-5.92
2023-02-09T20:30:21.534Z,-5.86
2023-02-09T20:32:50.759Z,-5.83
2023-02-09T20:35:20.080Z,-5.87
2023-02-09T20:37:49.546Z,-6.00
2023-02-09T20:40:20.604Z,-6.12
2023-02-09T20:43:08.494Z,-6.25
2023-02-09T20:45:55.112Z,-6.34
2023-02-09T20:48:24.307Z,-6.33
2023-02-09T20:50:55.088Z,-6.34
2023-02-09T20:53:24.492Z,-6.38
2023-02-09T20:55:54.983Z,-6.38
2023-02-09T20:58:24.086Z,-6.47
2023-02-09T21:00:53.839Z,-6.44
2023-02-09T21:03:23.950Z,-6.39
2023-02-09T21:05:53.233Z,-6.31
2023-02-09T21:08:22.895Z,-6.17
2023-02-09T21:10:58.361Z,-6.24
2023-02-09T21:13:27.508Z,-6.20
2023-02-09T21:15:56.971Z,-6.37
2023-02-09T21:18:26.111Z,-6.44
2023-02-09T21:20:55.647Z,-6.59
2023-02-09T21:23:24.762Z,-6.63
2023-02-09T21:26:03.660Z,-6.48
2023-02-09T21:28:33.295Z,-6.52
2023-02-09T21:31:02.550Z,-6.52
2023-02-09T21:33:31.643Z,-6.58
2023-02-09T21:36:00.716Z,-6.67
2023-02-09T21:38:29.854Z,-6.66
2023-02-09T21:40:58.897Z,-6.68
2023-02-09T21:43:29.364Z,-6.69
2023-02-09T21:45:58.450Z,-6.76
2023-02-09T21:48:27.587Z,-6.82
2023-02-09T21:50:56.928Z,-6.77
2023-02-09T21:53:26.283Z,-6.79
2023-02-09T21:55:55.431Z,-6.74
2023-02-09T21:58:24.520Z,-6.70
2023-02-09T22:00:59.908Z,-6.76
2023-02-09T22:03:28.982Z,-6.74
2023-02-09T22:05:58.165Z,-6.76
2023-02-09T22:08:27.866Z,-6.84
2023-02-09T22:11:00.301Z,-6.93
2023-02-09T22:13:29.611Z,-6.83
2023-02-09T22:16:00.558Z,-6.69
2023-02-09T22:18:29.681Z,-6.65
2023-02-09T22:21:00.514Z,-6.52
2023-02-09T22:23:29.658Z,-6.57
2023-02-09T22:26:02.594Z,-6.44
2023-02-09T22:28:34.496Z,-6.21
2023-02-09T22:31:13.328Z,-6.24
2023-02-09T22:33:43.155Z,-6.13
2023-02-09T22:36:16.206Z,-6.28
2023-02-09T22:38:46.076Z,-6.22
2023-02-09T22:41:22.376Z,-6.43
2023-02-09T22:43:52.654Z,-6.50
2023-02-09T22:46:25.620Z,-6.45
2023-02-09T22:48:57.008Z,-6.44
2023-02-09T22:51:28.607Z,-6.56
2023-02-09T22:53:58.346Z,-6.80
2023-02-09T22:56:28.435Z,-6.84
2023-02-09T22:58:59.163Z,-6.90
2023-02-09T23:01:30.852Z,-6.94
2023-02-09T23:04:00.454Z,-6.82
2023-02-09T23:06:30.809Z,-6.78
2023-02-09T23:09:04.287Z,-6.93
2023-02-09T23:11:33.523Z,-7.11
2023-02-09T23:14:11.169Z,-7.20
2023-02-09T23:16:43.554Z,-7.35
2023-02-09T23:19:15.089Z,-7.46
2023-02-09T23:21:46.536Z,-7.49
2023-02-09T23:24:17.529Z,-7.58
2023-02-09T23:26:46.671Z,-7.57
2023-02-09T23:29:17.586Z,-7.55
2023-02-09T23:31:48.919Z,-7.58
2023-02-09T23:34:21.118Z,-7.51
2023-02-09T23:36:50.357Z,-7.62
2023-02-09T23:39:22.405Z,-7.55
2023-02-09T23:41:51.543Z,-7.46
2023-02-09T23:44:20.753Z,-7.50
2023-02-09T23:46:51.283Z,-7.48
2023-02-09T23:49:20.394Z,-7.31
2023-02-09T23:51:49.541Z,-7.08
2023-02-09T23:54:18.611Z,-7.09
2023-02-09T23:56:49.755Z,-7.20
2023-02-09T23:59:18.837Z,-7.39
